Terminal Aerodrome Forecast
Issued by NWS Jackson, MS

Home | Current Version | Previous Version | Text Only | Print | Product List | Glossary On
Versions: 1 2 3 4 5 6 7 8 9 10 11 12 13 14 15
000
FTUS44 KJAN 210500
TAFGWO
TAF
KGWO 210536Z 2106/2206 VRB02KT P6SM SCT120
     FM211900 28006KT P6SM VCSH SCT050 SCT250
     FM220100 31007KT P6SM SCT100 SCT250=

USA.gov is the U.S. government's official web portal to all federal, state and local government web resources and services.